createdAt,value
2023-01-28T00:01:24.365Z,102168.06
2023-01-28T00:03:51.982Z,102167.94
2023-01-28T00:06:19.008Z,102167.03
2023-01-28T00:08:45.825Z,102165.16
2023-01-28T00:11:13.656Z,102166.84
2023-01-28T00:13:40.628Z,102153.50
2023-01-28T00:16:08.938Z,102159.56
2023-01-28T00:18:36.576Z,102156.84
2023-01-28T00:21:07.033Z,102154.00
2023-01-28T00:23:35.927Z,102160.19
2023-01-28T00:26:05.040Z,102164.56
2023-01-28T00:28:31.672Z,102160.19
2023-01-28T00:30:58.089Z,102165.50
2023-01-28T00:33:24.516Z,102165.59
2023-01-28T00:36:01.294Z,102167.41
2023-01-28T00:38:28.320Z,102170.13
2023-01-28T00:40:55.208Z,102172.97
2023-01-28T00:43:21.855Z,102170.47
2023-01-28T00:45:50.232Z,102179.47
2023-01-28T00:48:16.784Z,102168.06
2023-01-28T00:50:45.493Z,102170.78
2023-01-28T00:53:11.921Z,102170.78
2023-01-28T00:55:38.436Z,102177.91
2023-01-28T00:58:04.863Z,102177.03
2023-01-28T01:00:31.242Z,102176.94
2023-01-28T01:02:57.629Z,102176.09
2023-01-28T01:05:24.123Z,102176.09
2023-01-28T01:07:50.554Z,102176.09
2023-01-28T01:10:19.289Z,102170.88
2023-01-28T01:12:46.685Z,102171.78
2023-01-28T01:15:14.238Z,102174.56
2023-01-28T01:17:43.733Z,102179.94
2023-01-28T01:20:15.188Z,102179.09
2023-01-28T01:22:41.643Z,102184.47
2023-01-28T01:25:08.529Z,102182.75
2023-01-28T01:27:34.849Z,102183.78
2023-01-28T01:30:01.183Z,102177.69
2023-01-28T01:32:32.042Z,102184.81
2023-01-28T01:34:58.692Z,102184.13
2023-01-28T01:37:25.165Z,102184.25
2023-01-28T01:39:51.494Z,102178.25
2023-01-28T01:42:17.854Z,102188.19
2023-01-28T01:45:07.935Z,102174.28
2023-01-28T01:48:01.572Z,102173.66
2023-01-28T01:50:39.389Z,102178.19
2023-01-28T01:53:13.999Z,102180.06
2023-01-28T01:55:45.800Z,102179.16
2023-01-28T01:58:19.689Z,102174.75
2023-01-28T02:00:46.432Z,102181.81
2023-01-28T02:03:13.100Z,102179.22
2023-01-28T02:05:40.188Z,102177.41
2023-01-28T02:08:22.153Z,102178.41
2023-01-28T02:11:02.889Z,102187.28
2023-01-28T02:13:34.365Z,102185.53
2023-01-28T02:16:01.677Z,102184.69
2023-01-28T02:18:28.122Z,102190.00
2023-01-28T02:20:57.316Z,102187.41
2023-01-28T02:23:46.585Z,102199.81
2023-01-28T02:26:58.461Z,102188.34
2023-01-28T02:29:52.648Z,102184.13
2023-01-28T02:32:41.082Z,102185.13
2023-01-28T02:35:17.140Z,102187.88
2023-01-28T02:37:59.598Z,102179.13
2023-01-28T02:40:34.099Z,102189.91
2023-01-28T02:43:00.449Z,102190.88
2023-01-28T02:45:50.287Z,102189.06
2023-01-28T02:48:18.980Z,102193.38
2023-01-28T02:51:06.280Z,102182.75
2023-01-28T02:53:45.072Z,102187.03
2023-01-28T02:56:52.612Z,102180.72
2023-01-28T02:59:36.772Z,102184.13
2023-01-28T03:02:40.102Z,102180.56
2023-01-28T03:05:31.561Z,102179.59
2023-01-28T03:07:58.238Z,102178.75
2023-01-28T03:10:27.178Z,102179.69
2023-01-28T03:13:15.190Z,102184.13
2023-01-28T03:16:05.129Z,102185.06
2023-01-28T03:19:10.258Z,102192.34
2023-01-28T03:22:03.202Z,102187.09
2023-01-28T03:24:52.683Z,102183.66
2023-01-28T03:27:44.183Z,102184.59
2023-01-28T03:30:55.883Z,102168.84
2023-01-28T03:33:42.831Z,102173.28
2023-01-28T03:36:28.052Z,102176.88
2023-01-28T03:38:54.481Z,102181.31
2023-01-28T03:41:23.588Z,102184.94
2023-01-28T03:43:50.962Z,102184.94
2023-01-28T03:46:18.430Z,102181.50
2023-01-28T03:48:45.486Z,102182.41
2023-01-28T03:51:12.500Z,102183.34
2023-01-28T03:53:40.252Z,102192.25
2023-01-28T03:56:07.226Z,102191.31
2023-01-28T03:58:51.973Z,102189.50
2023-01-28T04:01:19.342Z,102189.44
2023-01-28T04:03:45.724Z,102179.75
2023-01-28T04:06:12.159Z,102191.16
2023-01-28T04:08:38.539Z,102200.91
2023-01-28T04:11:19.458Z,102207.09
2023-01-28T04:13:47.255Z,102211.59
2023-01-28T04:16:16.189Z,102216.91
2023-01-28T04:18:43.712Z,102216.16
2023-01-28T04:21:10.135Z,102209.09
2023-01-28T04:23:36.498Z,102218.97
2023-01-28T04:26:04.072Z,102213.66
2023-01-28T04:28:30.936Z,102211.00
2023-01-28T04:30:57.442Z,102212.78
2023-01-28T04:33:23.836Z,102215.38
2023-01-28T04:35:50.186Z,102206.44
2023-01-28T04:38:16.536Z,102198.50
2023-01-28T04:40:42.952Z,102200.22
2023-01-28T04:43:09.365Z,102208.09
2023-01-28T04:45:35.718Z,102192.97
2023-01-28T04:48:02.127Z,102191.16
2023-01-28T04:50:28.487Z,102195.56
2023-01-28T04:52:54.888Z,102204.44
2023-01-28T04:55:21.329Z,102199.28
2023-01-28T04:57:48.676Z,102208.34
2023-01-28T05:00:15.328Z,102203.25
2023-01-28T05:02:41.857Z,102210.50
2023-01-28T05:05:11.152Z,102203.69
2023-01-28T05:07:37.792Z,102201.16
2023-01-28T05:10:04.936Z,102207.47
2023-01-28T05:12:32.914Z,102198.78
2023-01-28T05:15:02.473Z,102209.47
2023-01-28T05:17:29.313Z,102217.59
2023-01-28T05:19:55.722Z,102224.75
2023-01-28T05:22:22.609Z,102220.47
2023-01-28T05:24:48.956Z,102229.41
2023-01-28T05:27:15.324Z,102226.06
2023-01-28T05:29:41.680Z,102224.31
2023-01-28T05:32:08.095Z,102226.19
2023-01-28T05:34:34.436Z,102222.78
2023-01-28T05:37:00.836Z,102218.38
2023-01-28T05:39:27.223Z,102215.72
2023-01-28T05:41:53.571Z,102204.13
2023-01-28T05:44:19.926Z,102202.25
2023-01-28T05:46:46.684Z,102205.69
2023-01-28T05:49:13.570Z,102199.38
2023-01-28T05:51:40.378Z,102202.81
2023-01-28T05:54:07.561Z,102200.09
2023-01-28T05:56:35.026Z,102208.91
2023-01-28T05:59:01.400Z,102199.06
2023-01-28T06:01:27.785Z,102201.66
2023-01-28T06:03:54.246Z,102208.63
2023-01-28T06:06:21.087Z,102203.16
2023-01-28T06:08:47.512Z,102206.50
2023-01-28T06:11:13.855Z,102208.16
2023-01-28T06:13:41.661Z,102208.09
2023-01-28T06:16:08.468Z,102218.47
2023-01-28T06:18:34.850Z,102196.31
2023-01-28T06:21:01.214Z,102198.97
2023-01-28T06:23:27.525Z,102206.06
2023-01-28T06:25:56.960Z,102211.44
2023-01-28T06:28:24.559Z,102205.34
2023-01-28T06:30:52.702Z,102204.56
2023-01-28T06:33:20.311Z,102200.19
2023-01-28T06:35:46.896Z,102208.16
2023-01-28T06:38:14.136Z,102210.81
2023-01-28T06:40:40.464Z,102203.78
2023-01-28T06:43:07.130Z,102202.91
2023-01-28T06:45:33.788Z,102203.84
2023-01-28T06:48:00.134Z,102207.38
2023-01-28T06:50:26.638Z,102207.38
2023-01-28T06:52:52.938Z,102213.53
2023-01-28T06:55:19.336Z,102211.03
2023-01-28T06:57:45.724Z,102220.00
2023-01-28T07:00:15.057Z,102217.44
2023-01-28T07:02:42.061Z,102221.88
2023-01-28T07:05:08.868Z,102224.59
2023-01-28T07:07:35.250Z,102227.25
2023-01-28T07:10:01.611Z,102230.75
2023-01-28T07:12:28.027Z,102239.56
2023-01-28T07:14:54.396Z,102234.22
2023-01-28T07:17:20.794Z,102230.59
2023-01-28T07:19:47.288Z,102230.59
2023-01-28T07:22:13.618Z,102223.59
2023-01-28T07:24:39.937Z,102227.09
2023-01-28T07:27:07.383Z,102227.09
2023-01-28T07:29:34.000Z,102232.50
2023-01-28T07:32:00.491Z,102229.06
2023-01-28T07:34:27.176Z,102232.78
2023-01-28T07:36:54.268Z,102236.44
2023-01-28T07:39:21.570Z,102243.69
2023-01-28T07:41:48.091Z,102249.16
2023-01-28T07:44:14.437Z,102257.25
2023-01-28T07:46:40.859Z,102256.47
2023-01-28T07:49:07.629Z,102254.72
2023-01-28T07:51:33.971Z,102262.78
2023-01-28T07:54:00.906Z,102261.91
2023-01-28T07:56:29.403Z,102266.34
2023-01-28T07:58:55.790Z,102270.63
2023-01-28T08:01:22.261Z,102281.25
2023-01-28T08:03:48.663Z,102267.97
2023-01-28T08:06:15.094Z,102267.06
2023-01-28T08:08:41.427Z,102278.53
2023-01-28T08:11:11.552Z,102291.66
2023-01-28T08:13:38.195Z,102282.69
2023-01-28T08:16:05.186Z,102283.34
2023-01-28T08:18:32.011Z,102294.59
2023-01-28T08:20:59.448Z,102307.50
2023-01-28T08:23:27.020Z,102316.00
2023-01-28T08:25:53.966Z,102310.59
2023-01-28T08:28:21.706Z,102320.97
2023-01-28T08:30:48.249Z,102321.84
2023-01-28T08:33:16.269Z,102324.50
2023-01-28T08:35:42.867Z,102316.53
2023-01-28T08:38:11.871Z,102313.94
2023-01-28T08:40:38.291Z,102322.91
2023-01-28T08:43:04.935Z,102332.72
2023-01-28T08:45:32.012Z,102331.94
2023-01-28T08:48:03.852Z,102346.22
2023-01-28T08:50:33.237Z,102340.03
2023-01-28T08:53:07.877Z,102330.28
2023-01-28T08:55:34.646Z,102327.56
2023-01-28T08:58:06.151Z,102341.63
2023-01-28T09:00:34.144Z,102346.00
2023-01-28T09:03:00.595Z,102351.25
2023-01-28T09:05:27.010Z,102343.19
2023-01-28T09:07:53.435Z,102341.50
2023-01-28T09:10:23.257Z,102357.41
2023-01-28T09:12:49.652Z,102346.78
2023-01-28T09:15:17.851Z,102355.69
2023-01-28T09:17:44.501Z,102366.44
2023-01-28T09:20:12.583Z,102379.78
2023-01-28T09:22:39.210Z,102368.47
2023-01-28T09:25:06.917Z,102373.03
2023-01-28T09:27:33.621Z,102358.97
2023-01-28T09:29:59.960Z,102356.31
2023-01-28T09:32:26.313Z,102354.56
2023-01-28T09:34:52.727Z,102359.72
2023-01-28T09:37:19.124Z,102365.66
2023-01-28T09:39:54.903Z,102349.50
2023-01-28T09:42:36.682Z,102362.41
2023-01-28T09:45:25.242Z,102358.56
2023-01-28T09:47:54.241Z,102360.91
2023-01-28T09:50:30.208Z,102363.28
2023-01-28T09:53:06.369Z,102358.69
2023-01-28T09:55:46.118Z,102362.13
2023-01-28T09:58:16.035Z,102356.81
2023-01-28T10:01:08.419Z,102353.31
2023-01-28T10:03:38.095Z,102364.84
2023-01-28T10:06:27.670Z,102380.78
2023-01-28T10:09:06.392Z,102388.84
2023-01-28T10:11:45.156Z,102379.06
2023-01-28T10:14:26.688Z,102382.63
2023-01-28T10:17:20.112Z,102389.59
2023-01-28T10:20:08.094Z,102385.03
2023-01-28T10:22:42.303Z,102376.91
2023-01-28T10:25:19.595Z,102384.66
2023-01-28T10:27:48.033Z,102382.63
2023-01-28T10:30:25.510Z,102378.72
2023-01-28T10:33:27.144Z,102381.88
2023-01-28T10:35:55.529Z,102363.84
2023-01-28T10:38:24.265Z,102368.84
2023-01-28T10:40:51.607Z,102362.28
2023-01-28T10:43:22.607Z,102360.88
2023-01-28T10:46:02.901Z,102359.47
2023-01-28T10:48:34.288Z,102359.78
2023-01-28T10:51:05.057Z,102353.13
2023-01-28T10:53:41.836Z,102353.44
2023-01-28T10:56:11.641Z,102339.63
2023-01-28T10:58:54.306Z,102342.66
2023-01-28T11:01:20.917Z,102335.91
2023-01-28T11:03:58.443Z,102334.47
2023-01-28T11:06:28.069Z,102341.09
2023-01-28T11:08:54.754Z,102328.13
2023-01-28T11:11:26.697Z,102324.03
2023-01-28T11:13:54.681Z,102327.13
2023-01-28T11:16:21.766Z,102323.13
2023-01-28T11:19:00.527Z,102324.53
2023-01-28T11:21:29.863Z,102316.19
2023-01-28T11:24:00.567Z,102307.03
2023-01-28T11:26:30.922Z,102301.31
2023-01-28T11:28:57.327Z,102301.13
2023-01-28T11:31:24.621Z,102306.28
2023-01-28T11:33:59.721Z,102305.19
2023-01-28T11:36:28.715Z,102299.75
2023-01-28T11:38:57.947Z,102290.03
2023-01-28T11:41:31.306Z,102289.06
2023-01-28T11:43:59.910Z,102306.03
2023-01-28T11:46:46.613Z,102286.53
2023-01-28T11:49:50.651Z,102282.91
2023-01-28T11:52:55.211Z,102257.09
2023-01-28T11:55:37.051Z,102259.09
2023-01-28T11:58:26.707Z,102246.88
2023-01-28T12:01:07.852Z,102235.56
2023-01-28T12:03:51.699Z,102232.25
2023-01-28T12:06:52.870Z,102229.75
2023-01-28T12:09:32.577Z,102222.81
2023-01-28T12:12:30.296Z,102204.22
2023-01-28T12:15:34.268Z,102212.31
2023-01-28T12:18:00.582Z,102225.81
2023-01-28T12:20:35.988Z,102227.72
2023-01-28T12:23:11.765Z,102231.25
2023-01-28T12:26:04.532Z,102230.22
2023-01-28T12:28:51.917Z,102218.50
2023-01-28T12:31:45.400Z,102216.78
2023-01-28T12:34:32.342Z,102208.72
2023-01-28T12:37:23.900Z,102208.59
2023-01-28T12:39:55.474Z,102211.97
2023-01-28T12:42:38.803Z,102202.09
2023-01-28T12:45:49.215Z,102213.31
2023-01-28T12:48:34.348Z,102213.72
2023-01-28T12:51:08.181Z,102225.91
2023-01-28T12:53:42.196Z,102244.88
2023-01-28T12:56:29.774Z,102228.41
2023-01-28T12:59:06.966Z,102224.44
2023-01-28T13:01:51.070Z,102229.19
2023-01-28T13:04:34.136Z,102236.81
2023-01-28T13:07:16.941Z,102240.03
2023-01-28T13:10:00.368Z,102238.16
2023-01-28T13:12:27.033Z,102241.59
2023-01-28T13:14:54.348Z,102232.63
2023-01-28T13:17:38.796Z,102234.34
2023-01-28T13:20:16.439Z,102232.44
2023-01-28T13:22:44.344Z,102241.19
2023-01-28T13:25:19.697Z,102244.63
2023-01-28T13:27:58.744Z,102235.47
2023-01-28T13:30:31.621Z,102233.38
2023-01-28T13:33:03.934Z,102234.06
2023-01-28T13:35:37.597Z,102225.66
2023-01-28T13:38:19.590Z,102213.75
2023-01-28T13:40:57.192Z,102207.25
2023-01-28T13:43:38.686Z,102198.09
2023-01-28T13:46:11.441Z,102203.25
2023-01-28T13:48:46.412Z,102194.28
2023-01-28T13:51:20.503Z,102179.13
2023-01-28T13:54:16.891Z,102162.25
2023-01-28T13:57:01.477Z,102158.63
2023-01-28T13:59:46.714Z,102169.50
2023-01-28T14:02:36.759Z,102154.53
2023-01-28T14:05:27.229Z,102169.78
2023-01-28T14:08:27.658Z,102164.56
2023-01-28T14:11:20.129Z,102171.81
2023-01-28T14:14:19.103Z,102187.81
2023-01-28T14:17:08.127Z,102200.41
2023-01-28T14:19:37.358Z,102202.28
2023-01-28T14:22:08.642Z,102210.41
2023-01-28T14:24:37.762Z,102208.81
2023-01-28T14:27:27.609Z,102216.03
2023-01-28T14:30:07.507Z,102209.09
2023-01-28T14:32:35.126Z,102206.69
2023-01-28T14:35:08.678Z,102200.63
2023-01-28T14:37:35.719Z,102201.97
2023-01-28T14:40:14.733Z,102220.81
2023-01-28T14:42:45.040Z,102218.34
2023-01-28T14:45:23.714Z,102211.47
2023-01-28T14:48:25.442Z,102218.81
2023-01-28T14:51:03.839Z,102217.22
2023-01-28T14:53:50.511Z,102216.63
2023-01-28T14:56:41.689Z,102222.03
2023-01-28T14:59:24.821Z,102208.97
2023-01-28T15:01:57.429Z,102209.19
2023-01-28T15:04:26.692Z,102210.22
2023-01-28T15:06:53.530Z,102208.72
2023-01-28T15:09:23.194Z,102208.03
2023-01-28T15:11:54.259Z,102217.16
2023-01-28T15:14:30.125Z,102227.13
2023-01-28T15:16:56.852Z,102234.59
2023-01-28T15:19:35.987Z,102228.66
2023-01-28T15:22:06.011Z,102233.31
2023-01-28T15:24:35.287Z,102243.28
2023-01-28T15:27:02.567Z,102244.41
2023-01-28T15:29:35.416Z,102235.69
2023-01-28T15:32:02.998Z,102231.38
2023-01-28T15:34:32.645Z,102234.91
2023-01-28T15:37:01.063Z,102246.59
2023-01-28T15:39:29.223Z,102246.66
2023-01-28T15:42:04.521Z,102256.47
2023-01-28T15:44:42.459Z,102253.03
2023-01-28T15:47:23.590Z,102254.84
2023-01-28T15:49:56.003Z,102265.56
2023-01-28T15:52:32.368Z,102266.63
2023-01-28T15:54:58.787Z,102271.28
2023-01-28T15:57:28.566Z,102277.53
2023-01-28T16:00:13.247Z,102276.09
2023-01-28T16:02:47.796Z,102286.81
2023-01-28T16:06:18.954Z,102294.13
2023-01-28T16:09:02.593Z,102285.44
2023-01-28T16:11:41.491Z,102276.09
2023-01-28T16:14:36.123Z,102280.91
2023-01-28T16:17:02.719Z,102274.19
2023-01-28T16:19:45.959Z,102263.97
2023-01-28T16:22:32.134Z,102262.69
2023-01-28T16:24:58.408Z,102242.59
2023-01-28T16:27:25.669Z,102255.31
2023-01-28T16:29:52.070Z,102252.47
2023-01-28T16:32:35.428Z,102262.06
2023-01-28T16:35:03.158Z,102263.59
2023-01-28T16:37:29.469Z,102251.72
2023-01-28T16:39:56.196Z,102245.06
2023-01-28T16:42:23.295Z,102248.16
2023-01-28T16:44:49.592Z,102242.28
2023-01-28T16:47:16.063Z,102247.00
2023-01-28T16:49:42.407Z,102246.38
2023-01-28T16:52:11.333Z,102238.63
2023-01-28T16:54:39.405Z,102239.91
2023-01-28T16:57:05.766Z,102237.53
2023-01-28T16:59:32.229Z,102240.47
2023-01-28T17:01:58.619Z,102240.75
2023-01-28T17:04:25.039Z,102236.63
2023-01-28T17:06:53.161Z,102237.88
2023-01-28T17:09:19.678Z,102244.44
2023-01-28T17:11:45.987Z,102248.31
2023-01-28T17:14:12.383Z,102264.56
2023-01-28T17:16:39.105Z,102261.28
2023-01-28T17:19:05.831Z,102270.31
2023-01-28T17:21:32.162Z,102278.50
2023-01-28T17:24:00.166Z,102277.78
2023-01-28T17:26:35.220Z,102283.25
2023-01-28T17:29:02.954Z,102280.75
2023-01-28T17:31:29.358Z,102275.66
2023-01-28T17:33:58.416Z,102285.56
2023-01-28T17:36:26.087Z,102283.13
2023-01-28T17:38:53.514Z,102281.63
2023-01-28T17:41:20.588Z,102288.00
2023-01-28T17:43:51.537Z,102287.34
2023-01-28T17:46:19.014Z,102303.47
2023-01-28T17:48:46.089Z,102293.25
2023-01-28T17:51:14.229Z,102289.00
2023-01-28T17:53:45.524Z,102288.28
2023-01-28T17:56:31.045Z,102297.34
2023-01-28T17:59:03.412Z,102291.34
2023-01-28T18:01:31.095Z,102283.59
2023-01-28T18:03:58.486Z,102291.69
2023-01-28T18:06:24.990Z,102301.63
2023-01-28T18:08:51.526Z,102308.03
2023-01-28T18:11:19.685Z,102312.56
2023-01-28T18:13:46.955Z,102317.16
2023-01-28T18:16:17.117Z,102310.25
2023-01-28T18:18:44.299Z,102317.44
2023-01-28T18:21:51.857Z,102328.16
2023-01-28T18:24:19.226Z,102330.88
2023-01-28T18:26:45.712Z,102324.72
2023-01-28T18:29:20.212Z,102326.50
2023-01-28T18:31:48.237Z,102332.59
2023-01-28T18:34:15.058Z,102335.25
2023-01-28T18:36:41.808Z,102333.34
2023-01-28T18:39:12.468Z,102342.94
2023-01-28T18:41:39.433Z,102348.97
2023-01-28T18:44:07.567Z,102342.66
2023-01-28T18:46:34.138Z,102338.94
2023-01-28T18:49:00.536Z,102336.09
2023-01-28T18:51:30.405Z,102348.28
2023-01-28T18:53:58.863Z,102333.09
2023-01-28T18:56:26.216Z,102329.41
2023-01-28T18:59:00.252Z,102328.25
2023-01-28T19:01:27.724Z,102328.13
2023-01-28T19:03:55.342Z,102343.88
2023-01-28T19:06:22.132Z,102341.09
2023-01-28T19:08:54.016Z,102335.69
2023-01-28T19:11:21.350Z,102346.19
2023-01-28T19:13:47.684Z,102340.75
2023-01-28T19:16:14.142Z,102339.75
2023-01-28T19:18:40.734Z,102336.19
2023-01-28T19:21:07.714Z,102347.56
2023-01-28T19:23:48.174Z,102348.34
2023-01-28T19:26:20.761Z,102357.09
2023-01-28T19:28:49.108Z,102357.09
2023-01-28T19:31:15.640Z,102358.72
2023-01-28T19:33:42.035Z,102345.44
2023-01-28T19:36:09.856Z,102347.94
2023-01-28T19:38:36.273Z,102342.50
2023-01-28T19:41:04.669Z,102352.97
2023-01-28T19:43:31.451Z,102340.50
2023-01-28T19:45:59.874Z,102329.72
2023-01-28T19:48:27.211Z,102329.56
2023-01-28T19:50:54.071Z,102330.38
2023-01-28T19:53:20.668Z,102330.22
2023-01-28T19:55:47.247Z,102315.09
2023-01-28T19:58:14.021Z,102328.22
2023-01-28T20:00:41.448Z,102326.34
2023-01-28T20:03:08.271Z,102310.44
2023-01-28T20:05:35.700Z,102315.66
2023-01-28T20:08:02.273Z,102310.34
2023-01-28T20:10:28.772Z,102303.16
2023-01-28T20:12:55.170Z,102304.03
2023-01-28T20:15:21.854Z,102303.13
2023-01-28T20:17:48.280Z,102307.47
2023-01-28T20:20:14.718Z,102303.91
2023-01-28T20:22:41.479Z,102305.63
2023-01-28T20:25:08.753Z,102298.59
2023-01-28T20:27:35.208Z,102297.56
2023-01-28T20:30:01.710Z,102300.16
2023-01-28T20:32:28.119Z,102300.16
2023-01-28T20:34:54.470Z,102296.50
2023-01-28T20:37:21.001Z,102293.78
2023-01-28T20:39:47.389Z,102292.81
2023-01-28T20:42:14.053Z,102299.84
2023-01-28T20:44:40.388Z,102289.22
2023-01-28T20:47:06.788Z,102290.00
2023-01-28T20:49:33.309Z,102287.34
2023-01-28T20:51:59.921Z,102288.22
2023-01-28T20:54:26.249Z,102287.31
2023-01-28T20:56:53.172Z,102291.66
2023-01-28T20:59:19.599Z,102295.97
2023-01-28T21:01:46.725Z,102295.97
2023-01-28T21:04:13.296Z,102297.66
2023-01-28T21:06:42.639Z,102300.25
2023-01-28T21:09:09.307Z,102296.66
2023-01-28T21:11:35.732Z,102293.94
2023-01-28T21:14:02.056Z,102299.25
2023-01-28T21:16:28.504Z,102300.97
2023-01-28T21:18:55.003Z,102295.66
2023-01-28T21:21:26.963Z,102298.31
2023-01-28T21:23:56.684Z,102295.66
2023-01-28T21:26:23.835Z,102293.78
2023-01-28T21:28:50.202Z,102288.47
2023-01-28T21:31:25.592Z,102292.94
2023-01-28T21:33:57.344Z,102296.38
2023-01-28T21:36:25.679Z,102299.88
2023-01-28T21:38:53.892Z,102291.91
2023-01-28T21:41:20.437Z,102286.59
2023-01-28T21:43:53.315Z,102283.00
2023-01-28T21:46:23.994Z,102288.31
2023-01-28T21:48:54.887Z,102288.31
2023-01-28T21:51:37.750Z,102277.78
2023-01-28T21:54:05.807Z,102279.50
2023-01-28T21:56:32.236Z,102286.59
2023-01-28T21:59:17.350Z,102280.44
2023-01-28T22:01:44.758Z,102282.31
2023-01-28T22:04:11.472Z,102284.13
2023-01-28T22:06:37.879Z,102279.72
2023-01-28T22:09:05.082Z,102281.63
2023-01-28T22:11:31.560Z,102277.16
2023-01-28T22:13:57.896Z,102277.16
2023-01-28T22:16:24.263Z,102274.56
2023-01-28T22:18:50.581Z,102276.31
2023-01-28T22:21:17.024Z,102282.53
2023-01-28T22:23:43.380Z,102280.97
2023-01-28T22:26:09.805Z,102289.78
2023-01-28T22:28:36.553Z,102285.50
2023-01-28T22:31:12.826Z,102282.84
2023-01-28T22:33:40.216Z,102281.03
2023-01-28T22:36:10.008Z,102279.25
2023-01-28T22:38:36.882Z,102275.81
2023-01-28T22:41:05.276Z,102265.22
2023-01-28T22:43:31.878Z,102265.22
2023-01-28T22:45:59.988Z,102265.22
2023-01-28T22:48:26.547Z,102258.94
2023-01-28T22:50:52.876Z,102258.94
2023-01-28T22:53:19.417Z,102264.25
2023-01-28T22:55:50.454Z,102262.41
2023-01-28T22:58:16.805Z,102265.97
2023-01-28T23:00:43.180Z,102264.25
2023-01-28T23:03:09.873Z,102265.09
2023-01-28T23:05:36.603Z,102267.69
2023-01-28T23:08:12.379Z,102258.88
2023-01-28T23:10:41.196Z,102258.00
2023-01-28T23:13:07.754Z,102246.47
2023-01-28T23:15:52.723Z,102244.81
2023-01-28T23:18:40.382Z,102242.06
2023-01-28T23:21:44.030Z,102240.38
2023-01-28T23:24:24.194Z,102234.09
2023-01-28T23:26:52.115Z,102240.44
2023-01-28T23:29:20.278Z,102247.53
2023-01-28T23:31:47.891Z,102244.03
2023-01-28T23:34:16.965Z,102238.78
2023-01-28T23:36:43.602Z,102231.75
2023-01-28T23:39:10.579Z,102236.28
2023-01-28T23:41:37.092Z,102242.53
2023-01-28T23:44:04.932Z,102246.91
2023-01-28T23:46:39.456Z,102250.50
2023-01-28T23:49:06.377Z,102241.59
2023-01-28T23:51:32.705Z,102245.09
2023-01-28T23:53:59.057Z,102241.59
2023-01-28T23:56:25.501Z,102233.56
2023-01-28T23:58:51.924Z,102230.91
